Castleton, Utah
Current Conditions -  °F | °C
As of 11:53 AM on Monday 22 Dec 2014 (Local Time) from KCNY Reporting Station
Few Clouds Few Clouds  
Wind Chill: 39°   Ceiling: Unl
Heat Index: 42°   Visibility: 10mi
Dew Point: 36°   Wind: 5mph
Humidity: 79%   Direction: 260°W
Pressure: 29.83"   Gusts: NA
Location:  38.6903°N, 109.256°W
Report Text: KCNY 221853Z AUTO 26004KT 10SM FEW100 06/02 A2983 RMK AO2 SLP106 T00560022
Loading
Personal Weather Stations






























Interactive Weather Map New forecast layout! Learn more

10-Day Weather Forecast

Advertisements
Track Severe Weather on mobile